Tropical Cyclones
[Index]
Main Index Home Page Stock Weather Photos Extreme Storms Discussion Storm News and Storm Chasing Reports Tropical Cyclones / Hurricanes / Typhoons Weather Data and Links Wild Fires / Bushfires Weather Observation Techniques Weather Picture Catalogue Tornado Pictures and Reports Stock Video Footage and DVDs for sale
Season 1966-1967 Tropical Cyclone DINAH-AGNES Track Map
Season 1966-1967 Summaries: [BoM-AU] [JTWC-AU] [JTWC-SIO] [JTWC-SPAC] [JTWC-SH]
<<- Previous TC | JTWC 1966-1967 Season | Next TC ->>

click for intensity scale information  Lat/long Grid: Show Hide

 Date Labels: Show Hide

Joint Typhoon Warning Centre Cyclone Data

Name: DINAH-AGNES
Number: 631 / 6716

22 Jan 1967 12:00 UTC to 02 Feb 1967 18:00 UTC

    date/time    lat    long     hPa   cat  kts
1967-01-22 12   12.2   164.6                  15          
1967-01-22 18   12.4   164.0                  20          
1967-01-23 00   12.6   163.5                  20          
1967-01-23 06   12.8   163.0                  15          
1967-01-23 12   13.1   162.4                  15          
1967-01-23 18   13.5   161.6                  10          
1967-01-24 00   13.8   160.9                  10          
1967-01-24 06   14.2   160.1                  10          
1967-01-24 12   14.6   159.4                  10          
1967-01-24 18   15.0   158.7                  10          
1967-01-25 00   15.5   158.0                  15          
1967-01-25 06   15.9   157.4                  25          
1967-01-25 12   16.4   156.8                  25          
1967-01-25 18   16.8   156.3                  15          
1967-01-26 00   17.3   155.7                  20          
1967-01-26 06   17.7   155.2                  30          
1967-01-26 12   18.2   154.7                  30          
1967-01-26 18   18.6   154.3                  35          
1967-01-27 00   19.1   154.0            1     40          
1967-01-27 06   19.6   153.6            1     45          
1967-01-27 12   20.2   153.3            1     45          
1967-01-27 18   20.7   153.1            1     50          
1967-01-28 00   21.2   152.9            2     55          
1967-01-28 06   21.6   152.8            2     60          
1967-01-28 12   22.1   152.8            2     70          
1967-01-28 18   22.7   152.8            3     80          
1967-01-29 00   23.6   152.9            3     85          
1967-01-29 06   24.5   153.1            3     80          
1967-01-29 12   25.4   153.5            3     85          
1967-01-29 18   26.4   154.4            3     90          
1967-01-30 00   27.4   155.5            3     80          
1967-01-30 06   28.5   156.8            2     65          
1967-01-30 12   29.7   157.9            1     50          
1967-01-30 18   30.9   158.8            1     40          
1967-01-31 00   32.0   159.3                  35          
1967-01-31 06   32.9   159.7            1     40          
1967-01-31 12   33.8   160.1            1     40          
1967-01-31 18   34.6   160.9            1     40          
1967-02-01 00   35.0   162.2                  35          
1967-02-01 06   34.9   164.3                  35          
1967-02-01 12   34.5   165.7                  35          
1967-02-01 18   33.8   166.8                  30          
1967-02-02 00   34.5   169.7                  30          
1967-02-02 06   36.5   174.4                  25          
1967-02-02 12   38.9   177.6                  20          
1967-02-02 18   41.5   179.7W                 15          
Winds are 1-min average.

Tropical cyclone tracks developed by Michael Bath using data from the Joint Typhoon Warning Centre Best Tracks and Google Maps.


[Australian Severe Weather index] [Copyright Notice] [Email Contacts] [Search This Site] [Privacy Policy]
Document: tropical_cyclone_dinah-agnes.htm Updated: 18 September 2016